Time;durP1;ratioP1;P1;durP2;ratioP2;P2;SDS_P1;SDS_P2;PMS_P1;PMS_P2;Temp;Humidity;BMP_temperature;BMP_pressure;BME280_temperature;BME280_humidity;BME280_pressure;Samples;Min_cycle;Max_cycle;Signal;HPM_P1;HPM_P2
2022/08/23 00:02:29;;;;;;;1.12;0.80;;;26.70;65.00;;;;;;10983864;32;20383;-68
2022/08/23 00:08:32;;;;;;;1.33;1.10;;;26.60;65.10;;;;;;10970249;32;20053;-68
2022/08/23 00:14:36;;;;;;;1.75;1.20;;;26.50;65.20;;;;;;10983386;32;20035;-68
2022/08/23 00:20:39;;;;;;;1.75;1.02;;;26.40;65.40;;;;;;10983297;32;20410;-68
2022/08/23 00:26:54;;;;;;;1.25;0.90;;;26.30;65.60;;;;;;10983071;32;20088;-69
2022/08/23 00:32:56;;;;;;;1.60;0.80;;;26.30;65.80;;;;;;10982711;32;20026;-70
2022/08/23 00:38:58;;;;;;;1.35;0.82;;;26.30;65.90;;;;;;10982516;32;20057;-70
2022/08/23 00:51:34;;;;;;;1.80;1.17;;;26.20;66.00;;;;;;10981856;32;20053;-70
2022/08/23 00:57:36;;;;;;;1.17;0.80;;;26.10;66.30;;;;;;10981974;32;20406;-68
2022/08/23 01:03:41;;;;;;;1.20;0.80;;;26.10;66.40;;;;;;10981383;32;20039;-70
2022/08/23 01:09:46;;;;;;;0.98;0.80;;;26.10;66.50;;;;;;10981322;32;20038;-69
2022/08/23 01:15:58;;;;;;;2.05;0.93;;;26.20;66.40;;;;;;10981165;32;20030;-70
2022/08/23 01:22:08;;;;;;;1.98;1.30;;;26.20;66.50;;;;;;10980986;32;20022;-70
2022/08/23 01:28:10;;;;;;;1.33;0.98;;;26.20;66.60;;;;;;10980835;32;20023;-70
2022/08/23 01:34:15;;;;;;;1.23;0.95;;;26.20;66.60;;;;;;10980559;32;20027;-68
2022/08/23 01:40:18;;;;;;;0.95;0.75;;;26.00;66.80;;;;;;10980375;32;20049;-70
2022/08/23 01:46:22;;;;;;;3.15;1.35;;;25.80;67.20;;;;;;10980281;32;20048;-70
2022/08/23 01:52:24;;;;;;;1.48;0.73;;;25.80;67.40;;;;;;10979979;32;20053;-70
2022/08/23 01:58:48;;;;;;;2.00;1.02;;;25.80;67.30;;;;;;10979942;32;20358;-70
2022/08/23 02:04:51;;;;;;;1.37;1.12;;;25.80;67.20;;;;;;10979850;32;20019;-70
2022/08/23 02:10:53;;;;;;;1.90;1.08;;;25.80;67.40;;;;;;10979514;32;20030;-70
2022/08/23 02:16:57;;;;;;;4.20;1.17;;;25.70;67.60;;;;;;10978862;32;20019;-70
2022/08/23 02:22:59;;;;;;;1.83;1.20;;;25.60;67.70;;;;;;10979255;32;20053;-69
2022/08/23 02:29:03;;;;;;;1.35;0.93;;;25.50;67.90;;;;;;10979287;32;20080;-68
2022/08/23 02:35:11;;;;;;;1.80;1.02;;;25.60;68.00;;;;;;10979265;32;20053;-69
2022/08/23 02:41:13;;;;;;;1.90;1.30;;;25.60;68.00;;;;;;10979199;32;20019;-69
2022/08/23 02:47:17;;;;;;;2.30;1.33;;;25.60;68.50;;;;;;10979076;32;20045;-68
2022/08/23 02:53:25;;;;;;;2.03;1.12;;;25.60;68.90;;;;;;10978842;32;20031;-69
2022/08/23 02:59:27;;;;;;;1.90;1.20;;;25.60;68.90;;;;;;10978854;32;20394;-69
2022/08/23 03:05:30;;;;;;;2.85;1.50;;;25.40;68.80;;;;;;10978650;32;20026;-69
2022/08/23 03:11:33;;;;;;;1.00;0.98;;;25.30;69.00;;;;;;10978504;32;20057;-68
2022/08/23 03:17:35;;;;;;;3.95;1.50;;;25.30;69.20;;;;;;10978425;32;20027;-68
2022/08/23 03:23:38;;;;;;;1.90;1.40;;;25.30;69.10;;;;;;10974231;32;20308;-69
2022/08/23 03:29:40;;;;;;;3.28;1.77;;;25.30;69.50;;;;;;10984717;32;20022;-69
2022/08/23 03:35:43;;;;;;;2.05;1.10;;;25.30;69.60;;;;;;10971490;32;20019;-68
2022/08/23 03:41:46;;;;;;;2.25;1.45;;;25.10;69.80;;;;;;10980551;32;20022;-69
2022/08/23 03:47:48;;;;;;;1.25;1.02;;;25.00;70.30;;;;;;10984542;32;20363;-68
2022/08/23 03:53:51;;;;;;;2.00;1.45;;;25.00;70.30;;;;;;10984219;32;20030;-68
2022/08/23 03:59:54;;;;;;;2.40;1.37;;;25.10;70.10;;;;;;10984034;32;20351;-69
2022/08/23 04:05:56;;;;;;;3.58;1.70;;;25.10;69.90;;;;;;10983857;32;20037;-69
2022/08/23 04:11:58;;;;;;;1.67;1.45;;;25.00;70.00;;;;;;10983553;32;20064;-69
2022/08/23 04:18:01;;;;;;;2.90;1.75;;;24.90;70.20;;;;;;10983464;32;20429;-69
2022/08/23 04:24:03;;;;;;;1.87;1.45;;;24.80;70.10;;;;;;10969817;32;20022;-69
2022/08/23 04:30:21;;;;;;;1.70;1.25;;;24.70;70.30;;;;;;10986141;27;20039;-68
2022/08/23 04:36:43;;;;;;;2.58;1.73;;;24.60;70.50;;;;;;10903916;32;20340;-69
2022/08/23 04:42:45;;;;;;;2.30;1.60;;;24.80;70.50;;;;;;10903330;32;20344;-69
2022/08/23 04:48:48;;;;;;;2.83;1.80;;;24.70;70.30;;;;;;10904594;32;20042;-69
2022/08/23 04:54:51;;;;;;;3.03;1.52;;;24.70;70.40;;;;;;10899148;32;20305;-69
2022/08/23 05:00:54;;;;;;;2.35;1.48;;;24.70;70.50;;;;;;10903449;32;20046;-69
2022/08/23 05:06:57;;;;;;;2.75;1.67;;;24.60;70.50;;;;;;10956736;32;20022;-68
2022/08/23 05:13:01;;;;;;;2.33;1.27;;;24.60;70.60;;;;;;10981310;32;20068;-69
2022/08/23 05:19:05;;;;;;;1.45;1.00;;;24.70;70.50;;;;;;10981111;32;20496;-68
2022/08/23 05:25:08;;;;;;;7.28;1.42;;;24.60;70.50;;;;;;10981046;32;20053;-68
2022/08/23 05:31:13;;;;;;;1.48;1.02;;;24.70;70.40;;;;;;10980352;32;20022;-70
2022/08/23 05:37:16;;;;;;;4.03;2.05;;;24.70;70.40;;;;;;10980536;32;20023;-69
2022/08/23 05:43:38;;;;;;;4.53;2.78;;;24.70;70.40;;;;;;10980303;32;20026;-69
2022/08/23 05:49:41;;;;;;;3.15;2.12;;;24.80;70.20;;;;;;10980639;32;20037;-69
2022/08/23 05:55:45;;;;;;;2.58;1.92;;;24.70;70.40;;;;;;10979925;32;20011;-69
2022/08/23 06:01:47;;;;;;;3.22;1.95;;;24.80;70.30;;;;;;10979804;32;20010;-69
2022/08/23 06:07:50;;;;;;;3.85;2.50;;;24.70;70.20;;;;;;10979804;32;20049;-69
2022/08/23 06:13:58;;;;;;;4.97;2.70;;;24.70;70.20;;;;;;10979549;32;20080;-69
2022/08/23 06:20:01;;;;;;;4.70;3.00;;;24.80;70.10;;;;;;10979328;32;20022;-69
2022/08/23 06:26:15;;;;;;;4.87;3.20;;;24.80;69.90;;;;;;10979383;32;20018;-69
2022/08/23 06:32:18;;;;;;;6.30;2.92;;;24.90;69.70;;;;;;10979179;32;20050;-69
2022/08/23 06:38:21;;;;;;;8.70;2.67;;;25.00;69.50;;;;;;10979255;32;20033;-69
2022/08/23 06:44:23;;;;;;;4.15;2.72;;;25.10;69.30;;;;;;10978967;32;20456;-69
2022/08/23 06:50:26;;;;;;;5.30;2.92;;;25.20;69.10;;;;;;10978955;32;20018;-69
2022/08/23 06:56:32;;;;;;;3.50;2.25;;;25.20;68.90;;;;;;10978931;32;20369;-69
2022/08/23 07:02:36;;;;;;;4.78;3.33;;;25.30;68.60;;;;;;10969983;32;20019;-69
2022/08/23 07:08:47;;;;;;;3.70;1.90;;;25.50;68.60;;;;;;10985499;32;20030;-69
2022/08/23 07:14:55;;;;;;;7.78;3.00;;;25.60;68.30;;;;;;10985473;32;20018;-69
2022/08/23 07:21:11;;;;;;;3.08;2.33;;;25.70;68.10;;;;;;10971986;32;20015;-70
2022/08/23 07:27:32;;;;;;;3.45;2.35;;;25.80;67.80;;;;;;10985156;32;20497;-70
2022/08/23 07:33:36;;;;;;;5.95;3.25;;;25.80;67.40;;;;;;10984834;32;20053;-69
2022/08/23 07:39:51;;;;;;;6.43;2.80;;;25.80;67.30;;;;;;10984799;32;20049;-69
2022/08/23 07:45:54;;;;;;;2.72;1.77;;;25.90;67.10;;;;;;10984436;32;20014;-69
2022/08/23 07:51:57;;;;;;;2.25;1.50;;;26.00;67.00;;;;;;10984162;32;20054;-69
2022/08/23 07:58:01;;;;;;;2.90;1.90;;;26.10;66.70;;;;;;10984270;32;20331;-69
2022/08/23 08:04:05;;;;;;;1.55;1.25;;;26.20;66.50;;;;;;10976810;32;20049;-70
2022/08/23 08:10:08;;;;;;;12.13;2.75;;;26.30;66.20;;;;;;10953964;32;20031;-68
2022/08/23 08:16:23;;;;;;;2.78;1.60;;;26.30;66.30;;;;;;10945737;32;20027;-70
2022/08/23 08:22:26;;;;;;;3.72;1.67;;;26.40;66.00;;;;;;10945567;32;20425;-69
2022/08/23 08:28:39;;;;;;;2.53;1.60;;;26.50;65.60;;;;;;10945366;32;20023;-70
2022/08/23 08:34:42;;;;;;;1.70;1.20;;;26.50;65.60;;;;;;10944636;32;20045;-69
2022/08/23 08:40:47;;;;;;;3.55;2.20;;;26.50;65.30;;;;;;10944890;32;20011;-69
2022/08/23 08:46:53;;;;;;;1.77;1.17;;;26.60;65.10;;;;;;10943835;32;20053;-68
2022/08/23 08:53:22;;;;;;;2.42;1.52;;;26.70;64.90;;;;;;10944097;32;20069;-71
2022/08/23 08:59:38;;;;;;;3.80;1.45;;;26.80;64.70;;;;;;10945077;32;20027;-69
2022/08/23 09:05:56;;;;;;;2.95;1.55;;;26.80;64.60;;;;;;10943846;32;20050;-70
2022/08/23 09:12:20;;;;;;;4.30;1.70;;;26.80;64.40;;;;;;10941364;32;20049;-69
2022/08/23 09:18:23;;;;;;;2.47;1.40;;;26.80;64.20;;;;;;10966425;32;20050;-69
2022/08/23 09:24:27;;;;;;;1.58;1.12;;;27.00;64.10;;;;;;10942743;32;20383;-71
2022/08/23 09:30:53;;;;;;;4.10;2.15;;;27.20;63.70;;;;;;10929612;32;20049;-69
2022/08/23 09:37:23;;;;;;;2.78;1.70;;;27.40;63.30;;;;;;10942843;32;20418;-69
2022/08/23 09:43:28;;;;;;;1.73;1.05;;;27.50;63.50;;;;;;10929612;32;20034;-68
2022/08/23 09:49:31;;;;;;;3.20;1.87;;;27.80;63.30;;;;;;10941421;32;20023;-70
2022/08/23 09:55:41;;;;;;;3.22;1.70;;;28.00;62.20;;;;;;10940406;32;20464;-69
2022/08/23 10:01:47;;;;;;;1.58;1.08;;;28.00;62.10;;;;;;10939728;32;20065;-70
2022/08/23 10:08:01;;;;;;;3.53;1.77;;;27.70;62.60;;;;;;10926017;32;20399;-70
2022/08/23 10:14:04;;;;;;;2.67;1.17;;;27.80;62.30;;;;;;10938827;32;20072;-70
2022/08/23 10:20:06;;;;;;;2.40;0.88;;;28.00;61.70;;;;;;10941948;32;20018;-69
2022/08/23 10:26:26;;;;;;;1.08;0.98;;;28.40;60.90;;;;;;10938158;32;20015;-69
2022/08/23 10:32:58;;;;;;;2.08;1.42;;;28.80;60.30;;;;;;10922546;32;20359;-69
2022/08/23 10:39:06;;;;;;;1.05;0.55;;;29.10;59.10;;;;;;10945862;32;20023;-70
2022/08/23 10:45:37;;;;;;;2.23;1.00;;;29.30;58.30;;;;;;10946711;32;20379;-69
2022/08/23 10:51:47;;;;;;;2.97;1.30;;;29.30;57.10;;;;;;10946422;32;20335;-69
2022/08/23 10:57:52;;;;;;;2.92;1.73;;;29.30;57.40;;;;;;10944262;32;20031;-70
2022/08/23 11:04:11;;;;;;;2.35;1.17;;;29.30;57.30;;;;;;10945975;32;20489;-70
2022/08/23 11:10:24;;;;;;;6.28;1.90;;;29.20;57.40;;;;;;10945417;32;20022;-69
2022/08/23 11:16:30;;;;;;;2.20;1.17;;;29.20;57.70;;;;;;10946251;32;20027;-70
2022/08/23 11:22:53;;;;;;;0.65;0.50;;;29.10;58.40;;;;;;10932230;32;20065;-70
2022/08/23 11:29:04;;;;;;;1.37;1.10;;;29.10;58.80;;;;;;10518950;32;13147251;-70
2022/08/23 11:35:31;;;;;;;2.72;1.27;;;29.10;58.40;;;;;;10869005;32;20050;-70
2022/08/23 11:41:55;;;;;;;0.98;0.77;;;29.30;58.30;;;;;;10864483;32;20031;-69
2022/08/23 11:48:13;;;;;;;1.92;0.85;;;29.60;57.90;;;;;;10868681;32;20027;-69
2022/08/23 11:54:35;;;;;;;2.43;1.70;;;29.60;57.50;;;;;;10884029;32;20057;-70
2022/08/23 12:01:05;;;;;;;1.98;1.08;;;29.80;57.00;;;;;;10946438;32;20098;-69
2022/08/23 12:07:12;;;;;;;3.97;1.73;;;30.10;56.20;;;;;;10946263;32;20037;-69
2022/08/23 12:13:19;;;;;;;1.25;0.55;;;30.00;56.20;;;;;;10945901;32;20050;-70
2022/08/23 12:19:54;;;;;;;2.35;0.93;;;30.00;55.60;;;;;;10928801;32;20019;-70
2022/08/23 12:26:24;;;;;;;2.60;0.98;;;30.20;55.00;;;;;;10945692;32;20035;-70
2022/08/23 12:32:42;;;;;;;1.37;1.02;;;30.30;54.60;;;;;;10927719;27;20047;-69
2022/08/23 12:38:50;;;;;;;2.92;1.23;;;30.10;55.50;;;;;;10945355;32;20023;-69
2022/08/23 12:45:11;;;;;;;0.93;0.60;;;29.90;56.80;;;;;;10931672;32;20340;-69
2022/08/23 12:51:14;;;;;;;4.43;0.88;;;30.20;56.40;;;;;;10944557;32;20058;-69
2022/08/23 12:57:31;;;;;;;2.50;1.23;;;30.30;55.70;;;;;;10944018;32;20355;-70
2022/08/23 13:03:38;;;;;;;11.10;1.77;;;30.20;56.40;;;;;;10944400;32;20024;-69
2022/08/23 13:09:42;;;;;;;1.73;0.73;;;30.00;56.30;;;;;;10930588;32;20041;-69
2022/08/23 13:16:01;;;;;;;2.90;0.90;;;30.10;55.80;;;;;;10925797;32;20093;-69
2022/08/23 13:22:22;;;;;;;5.78;1.48;;;30.00;55.40;;;;;;10894616;32;20027;-69
2022/08/23 13:28:28;;;;;;;2.15;1.23;;;29.90;55.40;;;;;;10916162;32;20023;-69
2022/08/23 13:34:43;;;;;;;1.85;0.90;;;30.00;55.20;;;;;;10943289;32;20292;-69
2022/08/23 13:40:54;;;;;;;2.55;0.93;;;30.30;54.60;;;;;;10943152;32;20346;-69
2022/08/23 13:46:56;;;;;;;1.17;0.80;;;30.50;53.90;;;;;;10930264;32;20315;-69
2022/08/23 13:53:00;;;;;;;1.42;0.80;;;30.70;53.50;;;;;;10941738;32;20031;-69
2022/08/23 13:59:16;;;;;;;1.00;0.73;;;30.70;53.30;;;;;;10942359;32;20026;-69
2022/08/23 14:05:21;;;;;;;2.80;0.40;;;30.70;53.30;;;;;;10937976;32;20026;-69
2022/08/23 14:11:22;;;;;;;1.25;0.80;;;30.70;53.40;;;;;;10942024;32;20335;-69
2022/08/23 14:17:25;;;;;;;4.60;1.50;;;30.70;53.30;;;;;;10941917;32;20026;-68
2022/08/23 14:23:27;;;;;;;1.77;0.95;;;30.70;54.00;;;;;;10925081;32;20014;-70
2022/08/23 14:29:29;;;;;;;4.05;1.58;;;30.60;54.30;;;;;;10938054;32;20023;-69
2022/08/23 14:35:31;;;;;;;1.12;0.80;;;30.70;54.10;;;;;;10941588;32;20343;-69
2022/08/23 14:41:33;;;;;;;3.22;1.12;;;30.50;53.90;;;;;;10941620;32;20430;-68
2022/08/23 14:47:35;;;;;;;1.77;1.12;;;30.40;54.20;;;;;;10941238;32;20331;-69
2022/08/23 14:53:37;;;;;;;1.55;1.15;;;30.40;54.20;;;;;;10940467;32;20049;-69
2022/08/23 14:59:40;;;;;;;4.43;1.45;;;30.40;54.30;;;;;;10941220;32;20020;-69
2022/08/23 15:05:42;;;;;;;1.77;0.80;;;30.50;53.80;;;;;;10925095;32;20027;-69
2022/08/23 15:11:45;;;;;;;6.32;1.10;;;30.70;53.40;;;;;;10927435;32;20030;-68
2022/08/23 15:17:59;;;;;;;1.70;1.12;;;30.80;53.10;;;;;;10928044;32;20196;-68
2022/08/23 15:24:01;;;;;;;1.80;0.75;;;30.80;52.90;;;;;;10945655;32;20395;-69
2022/08/23 15:30:04;;;;;;;1.23;0.93;;;30.80;52.90;;;;;;10943303;32;20046;-69
2022/08/23 15:36:07;;;;;;;2.00;0.90;;;30.90;52.60;;;;;;10933939;32;20037;-68
2022/08/23 15:42:09;;;;;;;1.12;0.50;;;30.90;53.70;;;;;;10944839;32;20023;-69
2022/08/23 15:48:54;;;;;;;0.77;0.55;;;30.80;53.70;;;;;;10936185;32;20339;-69
2022/08/23 15:54:57;;;;;;;2.20;0.50;;;31.00;53.00;;;;;;10933395;32;20023;-69
2022/08/23 16:00:59;;;;;;;1.58;0.90;;;31.20;52.40;;;;;;10933287;32;20019;-69
2022/08/23 16:07:05;;;;;;;1.20;0.60;;;31.30;51.60;;;;;;10932932;32;20019;-69
2022/08/23 16:13:08;;;;;;;1.62;0.70;;;31.30;51.40;;;;;;10956947;32;20026;-69
2022/08/23 16:19:10;;;;;;;1.95;0.80;;;31.40;51.10;;;;;;10931888;32;20034;-69
2022/08/23 16:25:13;;;;;;;0.77;0.60;;;31.40;50.50;;;;;;10950484;32;20019;-69
2022/08/23 16:31:16;;;;;;;0.52;0.40;;;31.30;50.30;;;;;;10942870;32;20034;-69
2022/08/23 16:37:19;;;;;;;1.37;0.80;;;31.10;50.80;;;;;;10958512;32;20051;-69
2022/08/23 16:43:21;;;;;;;1.70;0.82;;;31.10;50.40;;;;;;10944469;32;20045;-69
2022/08/23 16:49:24;;;;;;;4.70;1.27;;;31.10;50.10;;;;;;10944038;32;20073;-69
2022/08/23 16:55:44;;;;;;;29.45;0.98;;;31.10;50.20;;;;;;10931097;32;20022;-69
2022/08/23 17:01:56;;;;;;;2.00;0.70;;;31.00;50.50;;;;;;10943628;32;20047;-69
2022/08/23 17:07:59;;;;;;;0.43;0.32;;;32.10;49.30;;;;;;10930852;32;20019;-69
2022/08/23 17:14:02;;;;;;;1.58;0.40;;;32.20;49.10;;;;;;10930510;32;20019;-69
2022/08/23 17:20:05;;;;;;;2.40;0.70;;;31.80;50.00;;;;;;10942996;32;20476;-69
2022/08/23 17:26:08;;;;;;;2.22;0.60;;;31.30;50.50;;;;;;10930015;32;20049;-69
2022/08/23 17:32:10;;;;;;;2.35;1.00;;;30.90;51.00;;;;;;10943319;32;20339;-69
2022/08/23 17:38:13;;;;;;;0.85;0.50;;;30.80;51.30;;;;;;10943035;32;20053;-69
2022/08/23 17:44:16;;;;;;;1.00;0.62;;;30.50;52.00;;;;;;10942733;32;20421;-69
2022/08/23 17:50:19;;;;;;;0.65;0.40;;;30.30;52.40;;;;;;10937620;32;20050;-69
2022/08/23 17:56:30;;;;;;;2.72;0.68;;;30.10;53.00;;;;;;10927484;32;20049;-69
2022/08/23 18:02:32;;;;;;;0.65;0.50;;;29.80;53.20;;;;;;10927674;32;20014;-69
2022/08/23 18:08:34;;;;;;;1.00;0.65;;;29.70;53.50;;;;;;10940231;32;20410;-68
2022/08/23 18:14:37;;;;;;;0.40;0.40;;;29.60;53.80;;;;;;10941680;32;20049;-69
2022/08/23 18:20:44;;;;;;;0.30;0.30;;;29.40;54.00;;;;;;10928214;32;20399;-69
2022/08/23 18:33:07;;;;;;;3.55;1.30;;;29.20;54.60;;;;;;10940405;32;20387;-69
2022/08/23 18:39:13;;;;;;;1.65;0.68;;;29.00;54.80;;;;;;10928345;32;20023;-69
2022/08/23 18:45:15;;;;;;;0.40;0.40;;;28.90;55.00;;;;;;10938597;32;20054;-69
2022/08/23 18:51:18;;;;;;;1.50;0.60;;;28.80;55.40;;;;;;10941145;32;20022;-68
2022/08/23 18:57:20;;;;;;;1.05;0.55;;;28.80;55.70;;;;;;10943609;32;20532;-69
2022/08/23 19:03:22;;;;;;;2.15;0.98;;;28.70;55.90;;;;;;10948723;32;20019;-69
2022/08/23 19:09:24;;;;;;;1.75;0.75;;;28.60;56.20;;;;;;10948485;32;20057;-69
2022/08/23 19:15:32;;;;;;;0.50;0.50;;;28.50;56.40;;;;;;10948354;32;20057;-68
2022/08/23 19:21:42;;;;;;;3.28;0.93;;;28.40;56.70;;;;;;10948098;32;20033;-68
2022/08/23 19:27:44;;;;;;;1.55;0.80;;;28.30;56.60;;;;;;10946970;32;20468;-68
2022/08/23 19:33:47;;;;;;;4.28;1.00;;;28.20;56.70;;;;;;10947814;32;20053;-69
2022/08/23 19:39:50;;;;;;;1.75;0.75;;;28.10;57.00;;;;;;10947371;32;20027;-69
2022/08/23 19:45:53;;;;;;;1.17;0.88;;;28.00;57.30;;;;;;10947371;32;20019;-69
2022/08/23 19:51:55;;;;;;;0.93;0.80;;;28.00;57.70;;;;;;10944305;32;20460;-68
2022/08/23 19:57:57;;;;;;;4.95;1.05;;;27.90;58.00;;;;;;10946652;32;20049;-69
2022/08/23 20:04:01;;;;;;;1.55;1.00;;;27.80;58.20;;;;;;10946557;32;20387;-68
2022/08/23 20:10:05;;;;;;;3.25;1.20;;;27.80;58.50;;;;;;10945915;32;20058;-69
2022/08/23 20:16:07;;;;;;;3.00;0.98;;;27.80;58.70;;;;;;10932481;32;20070;-69
2022/08/23 20:28:31;;;;;;;1.52;1.23;;;27.80;59.30;;;;;;10960893;27;20049;-69
2022/08/23 20:34:33;;;;;;;1.17;0.90;;;27.80;59.70;;;;;;10983016;32;20023;-69
2022/08/23 20:40:36;;;;;;;2.05;0.98;;;27.60;60.60;;;;;;10982907;32;20046;-69
2022/08/23 20:46:38;;;;;;;2.15;1.20;;;27.60;61.30;;;;;;10982926;32;20033;-69
2022/08/23 20:52:40;;;;;;;1.58;1.05;;;27.50;61.70;;;;;;10969086;32;20022;-69
2022/08/23 20:58:46;;;;;;;2.55;1.00;;;27.50;62.10;;;;;;10982251;32;20050;-69
2022/08/23 21:04:48;;;;;;;5.20;1.50;;;27.40;62.40;;;;;;10982061;32;20354;-69
2022/08/23 21:10:50;;;;;;;2.87;1.45;;;27.30;62.80;;;;;;10981735;32;20396;-69
2022/08/23 21:16:53;;;;;;;1.92;1.05;;;27.30;62.80;;;;;;10981612;32;20045;-69
2022/08/23 21:22:55;;;;;;;2.53;1.50;;;27.20;62.80;;;;;;10980633;32;20077;-68
2022/08/23 21:28:57;;;;;;;1.25;0.90;;;27.20;62.90;;;;;;10981217;32;20433;-69
2022/08/23 21:35:00;;;;;;;0.50;0.45;;;27.10;63.10;;;;;;10980964;32;20022;-69
2022/08/23 21:41:07;;;;;;;2.05;1.12;;;26.90;63.30;;;;;;10980849;32;20030;-68
2022/08/23 21:47:11;;;;;;;0.93;0.70;;;26.80;63.60;;;;;;10967139;32;20053;-68
2022/08/23 21:53:14;;;;;;;1.75;0.80;;;26.80;63.60;;;;;;10976767;32;20034;-68
2022/08/23 21:59:17;;;;;;;8.55;1.58;;;26.80;63.70;;;;;;10976703;32;20053;-69
2022/08/23 22:05:19;;;;;;;2.60;1.48;;;26.90;63.70;;;;;;10966636;32;20026;-68
2022/08/23 22:11:24;;;;;;;1.73;1.23;;;26.80;63.80;;;;;;10979657;32;20022;-69
2022/08/23 22:17:28;;;;;;;1.20;1.10;;;26.70;64.20;;;;;;10979479;32;20057;-68
2022/08/23 22:23:31;;;;;;;2.75;1.35;;;26.60;64.50;;;;;;10979401;32;20045;-69
2022/08/23 22:29:35;;;;;;;0.93;0.80;;;26.60;64.60;;;;;;10960868;32;20403;-69
2022/08/23 22:35:38;;;;;;;2.30;1.20;;;26.60;64.60;;;;;;10949479;32;20038;-68
2022/08/23 22:41:40;;;;;;;2.83;1.45;;;26.60;64.70;;;;;;10949402;32;20049;-69
2022/08/23 22:47:42;;;;;;;2.42;1.45;;;26.50;64.90;;;;;;10949274;32;20484;-69
2022/08/23 22:53:50;;;;;;;1.58;1.17;;;26.50;65.10;;;;;;10948768;32;20030;-69
2022/08/23 22:59:53;;;;;;;2.10;1.37;;;26.50;65.00;;;;;;10948877;32;20042;-69
2022/08/23 23:05:55;;;;;;;2.00;1.02;;;26.40;65.50;;;;;;10948529;32;20049;-69
2022/08/23 23:11:57;;;;;;;1.42;1.05;;;26.30;65.60;;;;;;10948431;32;20019;-68
2022/08/23 23:17:59;;;;;;;2.87;1.83;;;26.30;65.90;;;;;;10948041;32;20019;-69
2022/08/23 23:24:02;;;;;;;0.88;0.80;;;26.20;66.60;;;;;;10943646;32;20034;-69
2022/08/23 23:30:04;;;;;;;2.47;1.75;;;26.00;66.70;;;;;;10947498;32;20050;-68
2022/08/23 23:36:06;;;;;;;1.83;1.20;;;26.00;66.90;;;;;;10947395;32;20049;-68
2022/08/23 23:42:08;;;;;;;2.03;1.50;;;25.90;67.20;;;;;;10942517;32;20049;-69
2022/08/23 23:48:10;;;;;;;2.17;1.50;;;25.90;67.10;;;;;;10947256;32;20019;-69
2022/08/23 23:54:12;;;;;;;2.75;1.85;;;25.90;67.20;;;;;;10946773;32;20293;-68
